sensor_id;sensor_type;location;lat;lon;timestamp;P1;durP1;ratioP1;P2;durP2;ratioP2
25231;SDS011;13176;51.140;6.290;2023-03-01T00:01:03;10.15;;;9.07;;
25231;SDS011;13176;51.140;6.290;2023-03-01T00:03:31;9.93;;;9.02;;
25231;SDS011;13176;51.140;6.290;2023-03-01T00:05:58;8.80;;;8.00;;
25231;SDS011;13176;51.140;6.290;2023-03-01T00:08:25;10.07;;;9.18;;
25231;SDS011;13176;51.140;6.290;2023-03-01T00:11:05;9.50;;;8.60;;
25231;SDS011;13176;51.140;6.290;2023-03-01T00:13:32;9.63;;;8.73;;
25231;SDS011;13176;51.140;6.290;2023-03-01T00:16:01;9.82;;;8.82;;
25231;SDS011;13176;51.140;6.290;2023-03-01T00:18:33;10.40;;;8.80;;
25231;SDS011;13176;51.140;6.290;2023-03-01T00:21:02;9.13;;;8.32;;
25231;SDS011;13176;51.140;6.290;2023-03-01T00:23:31;9.68;;;8.77;;
25231;SDS011;13176;51.140;6.290;2023-03-01T00:26:00;9.98;;;9.02;;
25231;SDS011;13176;51.140;6.290;2023-03-01T00:28:26;9.10;;;8.40;;
25231;SDS011;13176;51.140;6.290;2023-03-01T00:30:53;10.60;;;9.25;;
25231;SDS011;13176;51.140;6.290;2023-03-01T00:33:20;9.85;;;8.95;;
25231;SDS011;13176;51.140;6.290;2023-03-01T00:35:47;9.90;;;8.90;;
25231;SDS011;13176;51.140;6.290;2023-03-01T00:38:14;10.32;;;9.38;;
25231;SDS011;13176;51.140;6.290;2023-03-01T00:40:42;10.02;;;9.07;;
25231;SDS011;13176;51.140;6.290;2023-03-01T00:43:09;12.07;;;9.32;;
25231;SDS011;13176;51.140;6.290;2023-03-01T00:45:39;9.15;;;8.32;;
25231;SDS011;13176;51.140;6.290;2023-03-01T00:48:05;10.00;;;9.00;;
25231;SDS011;13176;51.140;6.290;2023-03-01T00:50:31;9.88;;;8.88;;
25231;SDS011;13176;51.140;6.290;2023-03-01T00:52:58;9.82;;;8.82;;
25231;SDS011;13176;51.140;6.290;2023-03-01T00:55:25;10.32;;;9.35;;
25231;SDS011;13176;51.140;6.290;2023-03-01T00:57:51;9.32;;;8.43;;
25231;SDS011;13176;51.140;6.290;2023-03-01T01:00:19;10.57;;;9.30;;
25231;SDS011;13176;51.140;6.290;2023-03-01T01:02:46;14.07;;;9.20;;
25231;SDS011;13176;51.140;6.290;2023-03-01T01:05:13;9.65;;;8.65;;
25231;SDS011;13176;51.140;6.290;2023-03-01T01:07:39;9.90;;;9.00;;
25231;SDS011;13176;51.140;6.290;2023-03-01T01:10:06;11.82;;;9.05;;
25231;SDS011;13176;51.140;6.290;2023-03-01T01:12:33;9.85;;;8.95;;
25231;SDS011;13176;51.140;6.290;2023-03-01T01:14:59;9.95;;;9.05;;
25231;SDS011;13176;51.140;6.290;2023-03-01T01:17:28;10.15;;;9.25;;
25231;SDS011;13176;51.140;6.290;2023-03-01T01:19:55;9.75;;;8.73;;
25231;SDS011;13176;51.140;6.290;2023-03-01T01:22:27;10.60;;;9.13;;
25231;SDS011;13176;51.140;6.290;2023-03-01T01:24:54;11.00;;;9.63;;
25231;SDS011;13176;51.140;6.290;2023-03-01T01:27:20;10.27;;;9.48;;
25231;SDS011;13176;51.140;6.290;2023-03-01T01:29:47;10.32;;;9.32;;
25231;SDS011;13176;51.140;6.290;2023-03-01T01:32:14;10.48;;;9.57;;
25231;SDS011;13176;51.140;6.290;2023-03-01T01:34:40;10.88;;;9.85;;
25231;SDS011;13176;51.140;6.290;2023-03-01T01:37:17;9.73;;;8.73;;
25231;SDS011;13176;51.140;6.290;2023-03-01T01:39:47;11.70;;;9.38;;
25231;SDS011;13176;51.140;6.290;2023-03-01T01:42:16;11.40;;;9.13;;
25231;SDS011;13176;51.140;6.290;2023-03-01T01:44:47;11.80;;;9.02;;
25231;SDS011;13176;51.140;6.290;2023-03-01T01:47:18;10.00;;;9.00;;
25231;SDS011;13176;51.140;6.290;2023-03-01T01:49:51;11.50;;;8.40;;
25231;SDS011;13176;51.140;6.290;2023-03-01T01:52:27;10.25;;;8.68;;
25231;SDS011;13176;51.140;6.290;2023-03-01T01:55:08;9.43;;;8.52;;
25231;SDS011;13176;51.140;6.290;2023-03-01T01:57:47;11.32;;;8.48;;
25231;SDS011;13176;51.140;6.290;2023-03-01T02:00:21;10.77;;;9.38;;
25231;SDS011;13176;51.140;6.290;2023-03-01T02:02:51;9.98;;;9.02;;
25231;SDS011;13176;51.140;6.290;2023-03-01T02:05:33;9.18;;;8.32;;
25231;SDS011;13176;51.140;6.290;2023-03-01T02:08:10;10.88;;;9.07;;
25231;SDS011;13176;51.140;6.290;2023-03-01T02:10:38;9.45;;;8.57;;
25231;SDS011;13176;51.140;6.290;2023-03-01T02:13:06;10.13;;;8.95;;
25231;SDS011;13176;51.140;6.290;2023-03-01T02:15:33;10.82;;;9.82;;
25231;SDS011;13176;51.140;6.290;2023-03-01T02:18:04;11.43;;;9.52;;
25231;SDS011;13176;51.140;6.290;2023-03-01T02:23:22;10.55;;;9.55;;
25231;SDS011;13176;51.140;6.290;2023-03-01T02:25:51;9.93;;;9.02;;
25231;SDS011;13176;51.140;6.290;2023-03-01T02:28:26;10.02;;;9.02;;
25231;SDS011;13176;51.140;6.290;2023-03-01T02:30:56;8.32;;;7.60;;
25231;SDS011;13176;51.140;6.290;2023-03-01T02:33:42;10.02;;;9.02;;
25231;SDS011;13176;51.140;6.290;2023-03-01T02:36:23;11.07;;;8.90;;
25231;SDS011;13176;51.140;6.290;2023-03-01T02:38:57;9.50;;;8.50;;
25231;SDS011;13176;51.140;6.290;2023-03-01T02:41:26;10.15;;;9.15;;
25231;SDS011;13176;51.140;6.290;2023-03-01T02:43:56;11.48;;;9.68;;
25231;SDS011;13176;51.140;6.290;2023-03-01T02:46:24;10.52;;;9.52;;
25231;SDS011;13176;51.140;6.290;2023-03-01T02:48:53;11.93;;;9.98;;
25231;SDS011;13176;51.140;6.290;2023-03-01T02:54:11;10.05;;;8.95;;
25231;SDS011;13176;51.140;6.290;2023-03-01T02:56:43;12.00;;;9.38;;
25231;SDS011;13176;51.140;6.290;2023-03-01T02:59:14;10.60;;;9.52;;
25231;SDS011;13176;51.140;6.290;2023-03-01T03:01:44;10.75;;;9.65;;
25231;SDS011;13176;51.140;6.290;2023-03-01T03:04:13;10.25;;;9.25;;
25231;SDS011;13176;51.140;6.290;2023-03-01T03:06:45;10.52;;;9.45;;
25231;SDS011;13176;51.140;6.290;2023-03-01T03:09:12;9.80;;;8.90;;
25231;SDS011;13176;51.140;6.290;2023-03-01T03:11:45;10.23;;;9.25;;
25231;SDS011;13176;51.140;6.290;2023-03-01T03:14:13;10.18;;;9.23;;
25231;SDS011;13176;51.140;6.290;2023-03-01T03:16:42;11.00;;;9.95;;
25231;SDS011;13176;51.140;6.290;2023-03-01T03:19:10;10.95;;;9.65;;
25231;SDS011;13176;51.140;6.290;2023-03-01T03:21:37;9.65;;;8.75;;
25231;SDS011;13176;51.140;6.290;2023-03-01T03:24:04;14.60;;;9.88;;
25231;SDS011;13176;51.140;6.290;2023-03-01T03:26:31;9.95;;;9.05;;
25231;SDS011;13176;51.140;6.290;2023-03-01T03:28:58;9.98;;;8.93;;
25231;SDS011;13176;51.140;6.290;2023-03-01T03:31:25;10.10;;;9.07;;
25231;SDS011;13176;51.140;6.290;2023-03-01T03:33:52;10.80;;;9.52;;
25231;SDS011;13176;51.140;6.290;2023-03-01T03:36:21;10.50;;;9.48;;
25231;SDS011;13176;51.140;6.290;2023-03-01T03:38:48;10.68;;;9.60;;
25231;SDS011;13176;51.140;6.290;2023-03-01T03:41:45;11.02;;;9.93;;
25231;SDS011;13176;51.140;6.290;2023-03-01T03:44:11;10.23;;;9.38;;
25231;SDS011;13176;51.140;6.290;2023-03-01T03:46:41;10.90;;;9.32;;
25231;SDS011;13176;51.140;6.290;2023-03-01T03:49:07;10.38;;;9.40;;
25231;SDS011;13176;51.140;6.290;2023-03-01T03:51:33;10.80;;;9.75;;
25231;SDS011;13176;51.140;6.290;2023-03-01T03:54:00;11.35;;;9.95;;
25231;SDS011;13176;51.140;6.290;2023-03-01T03:56:26;11.50;;;10.30;;
25231;SDS011;13176;51.140;6.290;2023-03-01T03:58:54;12.23;;;10.93;;
25231;SDS011;13176;51.140;6.290;2023-03-01T04:01:20;10.85;;;9.85;;
25231;SDS011;13176;51.140;6.290;2023-03-01T04:03:47;11.13;;;10.02;;
25231;SDS011;13176;51.140;6.290;2023-03-01T04:06:13;11.63;;;10.43;;
25231;SDS011;13176;51.140;6.290;2023-03-01T04:08:40;11.93;;;10.75;;
25231;SDS011;13176;51.140;6.290;2023-03-01T04:11:07;11.25;;;10.20;;
25231;SDS011;13176;51.140;6.290;2023-03-01T04:13:56;13.45;;;10.40;;
25231;SDS011;13176;51.140;6.290;2023-03-01T04:16:25;11.95;;;10.40;;
25231;SDS011;13176;51.140;6.290;2023-03-01T04:18:51;11.90;;;10.65;;
25231;SDS011;13176;51.140;6.290;2023-03-01T04:21:19;11.65;;;10.52;;
25231;SDS011;13176;51.140;6.290;2023-03-01T04:23:46;11.68;;;10.48;;
25231;SDS011;13176;51.140;6.290;2023-03-01T04:26:12;11.27;;;10.13;;
25231;SDS011;13176;51.140;6.290;2023-03-01T04:28:39;11.30;;;10.13;;
25231;SDS011;13176;51.140;6.290;2023-03-01T04:31:10;11.15;;;10.15;;
25231;SDS011;13176;51.140;6.290;2023-03-01T04:33:44;13.00;;;11.02;;
25231;SDS011;13176;51.140;6.290;2023-03-01T04:36:16;13.00;;;11.30;;
25231;SDS011;13176;51.140;6.290;2023-03-01T04:38:44;11.77;;;10.40;;
25231;SDS011;13176;51.140;6.290;2023-03-01T04:41:15;11.48;;;10.27;;
25231;SDS011;13176;51.140;6.290;2023-03-01T04:43:43;12.23;;;9.52;;
25231;SDS011;13176;51.140;6.290;2023-03-01T04:46:14;12.10;;;11.00;;
25231;SDS011;13176;51.140;6.290;2023-03-01T04:48:43;12.05;;;10.90;;
25231;SDS011;13176;51.140;6.290;2023-03-01T04:51:10;11.68;;;10.65;;
25231;SDS011;13176;51.140;6.290;2023-03-01T04:53:41;11.52;;;10.43;;
25231;SDS011;13176;51.140;6.290;2023-03-01T04:56:09;12.63;;;11.20;;
25231;SDS011;13176;51.140;6.290;2023-03-01T04:58:35;12.57;;;11.38;;
25231;SDS011;13176;51.140;6.290;2023-03-01T05:01:07;12.50;;;11.18;;
25231;SDS011;13176;51.140;6.290;2023-03-01T05:03:42;13.00;;;11.45;;
25231;SDS011;13176;51.140;6.290;2023-03-01T05:06:10;14.95;;;11.38;;
25231;SDS011;13176;51.140;6.290;2023-03-01T05:08:40;12.15;;;11.07;;
25231;SDS011;13176;51.140;6.290;2023-03-01T05:11:08;14.73;;;12.18;;
25231;SDS011;13176;51.140;6.290;2023-03-01T05:13:36;13.15;;;11.85;;
25231;SDS011;13176;51.140;6.290;2023-03-01T05:16:04;13.15;;;11.80;;
25231;SDS011;13176;51.140;6.290;2023-03-01T05:18:32;12.48;;;11.27;;
25231;SDS011;13176;51.140;6.290;2023-03-01T05:21:03;14.48;;;11.48;;
25231;SDS011;13176;51.140;6.290;2023-03-01T05:23:32;12.48;;;11.32;;
25231;SDS011;13176;51.140;6.290;2023-03-01T05:26:00;14.15;;;11.63;;
25231;SDS011;13176;51.140;6.290;2023-03-01T05:28:28;11.75;;;10.63;;
25231;SDS011;13176;51.140;6.290;2023-03-01T05:30:56;12.18;;;10.98;;
25231;SDS011;13176;51.140;6.290;2023-03-01T05:33:26;13.68;;;11.27;;
25231;SDS011;13176;51.140;6.290;2023-03-01T05:35:54;11.65;;;10.50;;
25231;SDS011;13176;51.140;6.290;2023-03-01T05:38:20;12.45;;;11.35;;
25231;SDS011;13176;51.140;6.290;2023-03-01T05:40:48;11.70;;;10.45;;
25231;SDS011;13176;51.140;6.290;2023-03-01T05:43:15;12.55;;;11.30;;
25231;SDS011;13176;51.140;6.290;2023-03-01T05:45:44;13.98;;;11.10;;
25231;SDS011;13176;51.140;6.290;2023-03-01T05:48:11;11.48;;;10.48;;
25231;SDS011;13176;51.140;6.290;2023-03-01T05:50:40;12.50;;;11.30;;
25231;SDS011;13176;51.140;6.290;2023-03-01T05:53:12;16.52;;;11.35;;
25231;SDS011;13176;51.140;6.290;2023-03-01T05:55:40;13.77;;;12.48;;
25231;SDS011;13176;51.140;6.290;2023-03-01T05:58:12;12.15;;;11.02;;
25231;SDS011;13176;51.140;6.290;2023-03-01T06:00:43;11.48;;;10.48;;
25231;SDS011;13176;51.140;6.290;2023-03-01T06:03:12;11.88;;;10.68;;
25231;SDS011;13176;51.140;6.290;2023-03-01T06:05:39;11.98;;;10.88;;
25231;SDS011;13176;51.140;6.290;2023-03-01T06:08:06;11.43;;;10.38;;
25231;SDS011;13176;51.140;6.290;2023-03-01T06:10:33;11.77;;;10.57;;
25231;SDS011;13176;51.140;6.290;2023-03-01T06:12:59;11.95;;;9.68;;
25231;SDS011;13176;51.140;6.290;2023-03-01T06:15:26;12.15;;;10.50;;
25231;SDS011;13176;51.140;6.290;2023-03-01T06:17:53;12.57;;;10.57;;
25231;SDS011;13176;51.140;6.290;2023-03-01T06:20:25;11.95;;;10.27;;
25231;SDS011;13176;51.140;6.290;2023-03-01T06:22:53;11.63;;;10.52;;
25231;SDS011;13176;51.140;6.290;2023-03-01T06:25:21;11.20;;;9.93;;
25231;SDS011;13176;51.140;6.290;2023-03-01T06:27:49;14.52;;;10.30;;
25231;SDS011;13176;51.140;6.290;2023-03-01T06:30:16;11.65;;;10.55;;
25231;SDS011;13176;51.140;6.290;2023-03-01T06:32:45;11.65;;;10.55;;
25231;SDS011;13176;51.140;6.290;2023-03-01T06:35:12;11.90;;;10.32;;
25231;SDS011;13176;51.140;6.290;2023-03-01T06:37:40;11.77;;;10.57;;
25231;SDS011;13176;51.140;6.290;2023-03-01T06:40:07;13.02;;;10.25;;
25231;SDS011;13176;51.140;6.290;2023-03-01T06:42:38;12.60;;;10.73;;
25231;SDS011;13176;51.140;6.290;2023-03-01T06:45:05;13.07;;;10.50;;
25231;SDS011;13176;51.140;6.290;2023-03-01T06:47:33;11.70;;;10.50;;
25231;SDS011;13176;51.140;6.290;2023-03-01T06:50:00;12.00;;;10.75;;
25231;SDS011;13176;51.140;6.290;2023-03-01T06:52:27;11.93;;;10.73;;
25231;SDS011;13176;51.140;6.290;2023-03-01T06:54:53;12.85;;;11.20;;
25231;SDS011;13176;51.140;6.290;2023-03-01T06:57:19;11.48;;;10.43;;
25231;SDS011;13176;51.140;6.290;2023-03-01T06:59:46;13.65;;;12.27;;
25231;SDS011;13176;51.140;6.290;2023-03-01T07:02:13;12.50;;;11.13;;
25231;SDS011;13176;51.140;6.290;2023-03-01T07:04:41;12.90;;;11.27;;
25231;SDS011;13176;51.140;6.290;2023-03-01T07:07:08;12.27;;;10.90;;
25231;SDS011;13176;51.140;6.290;2023-03-01T07:09:34;12.40;;;11.07;;
25231;SDS011;13176;51.140;6.290;2023-03-01T07:12:01;12.80;;;11.38;;
25231;SDS011;13176;51.140;6.290;2023-03-01T07:14:27;11.90;;;10.63;;
25231;SDS011;13176;51.140;6.290;2023-03-01T07:16:54;12.07;;;10.82;;
25231;SDS011;13176;51.140;6.290;2023-03-01T07:19:21;11.27;;;10.10;;
25231;SDS011;13176;51.140;6.290;2023-03-01T07:21:48;11.55;;;10.35;;
25231;SDS011;13176;51.140;6.290;2023-03-01T07:24:15;13.20;;;11.07;;
25231;SDS011;13176;51.140;6.290;2023-03-01T07:26:41;11.73;;;10.73;;
25231;SDS011;13176;51.140;6.290;2023-03-01T07:29:09;12.02;;;10.93;;
25231;SDS011;13176;51.140;6.290;2023-03-01T07:31:36;11.63;;;10.52;;
25231;SDS011;13176;51.140;6.290;2023-03-01T07:34:02;11.80;;;10.60;;
25231;SDS011;13176;51.140;6.290;2023-03-01T07:36:29;11.05;;;10.00;;
25231;SDS011;13176;51.140;6.290;2023-03-01T07:38:56;12.98;;;10.25;;
25231;SDS011;13176;51.140;6.290;2023-03-01T07:41:23;11.45;;;10.30;;
25231;SDS011;13176;51.140;6.290;2023-03-01T07:43:50;11.20;;;10.20;;
25231;SDS011;13176;51.140;6.290;2023-03-01T07:46:16;11.73;;;10.70;;
25231;SDS011;13176;51.140;6.290;2023-03-01T07:48:45;11.93;;;10.70;;
25231;SDS011;13176;51.140;6.290;2023-03-01T07:51:11;14.30;;;11.10;;
25231;SDS011;13176;51.140;6.290;2023-03-01T07:53:37;12.02;;;10.82;;
25231;SDS011;13176;51.140;6.290;2023-03-01T07:56:05;11.85;;;10.70;;
25231;SDS011;13176;51.140;6.290;2023-03-01T07:58:40;13.77;;;10.73;;
25231;SDS011;13176;51.140;6.290;2023-03-01T08:01:09;12.30;;;11.10;;
25231;SDS011;13176;51.140;6.290;2023-03-01T08:03:37;12.73;;;11.43;;
25231;SDS011;13176;51.140;6.290;2023-03-01T08:06:05;12.02;;;10.93;;
25231;SDS011;13176;51.140;6.290;2023-03-01T08:08:33;13.05;;;10.82;;
25231;SDS011;13176;51.140;6.290;2023-03-01T08:11:00;11.82;;;10.63;;
25231;SDS011;13176;51.140;6.290;2023-03-01T08:13:28;12.60;;;11.30;;
25231;SDS011;13176;51.140;6.290;2023-03-01T08:16:00;13.05;;;11.75;;
25231;SDS011;13176;51.140;6.290;2023-03-01T08:18:47;14.18;;;12.50;;
25231;SDS011;13176;51.140;6.290;2023-03-01T08:21:16;13.10;;;11.73;;
25231;SDS011;13176;51.140;6.290;2023-03-01T08:23:43;12.52;;;11.40;;
25231;SDS011;13176;51.140;6.290;2023-03-01T08:26:12;14.50;;;12.43;;
25231;SDS011;13176;51.140;6.290;2023-03-01T08:28:45;13.10;;;11.90;;
25231;SDS011;13176;51.140;6.290;2023-03-01T08:31:17;13.00;;;11.82;;
25231;SDS011;13176;51.140;6.290;2023-03-01T08:33:46;14.07;;;12.32;;
25231;SDS011;13176;51.140;6.290;2023-03-01T08:36:26;14.77;;;11.80;;
25231;SDS011;13176;51.140;6.290;2023-03-01T08:38:55;12.52;;;11.30;;
25231;SDS011;13176;51.140;6.290;2023-03-01T08:41:22;12.93;;;11.75;;
25231;SDS011;13176;51.140;6.290;2023-03-01T08:43:49;12.35;;;11.35;;
25231;SDS011;13176;51.140;6.290;2023-03-01T08:46:16;13.95;;;12.73;;
25231;SDS011;13176;51.140;6.290;2023-03-01T08:48:42;12.85;;;11.60;;
25231;SDS011;13176;51.140;6.290;2023-03-01T08:51:11;12.70;;;11.32;;
25231;SDS011;13176;51.140;6.290;2023-03-01T08:53:42;13.70;;;11.63;;
25231;SDS011;13176;51.140;6.290;2023-03-01T08:56:10;13.98;;;12.40;;
25231;SDS011;13176;51.140;6.290;2023-03-01T08:58:37;13.02;;;11.82;;
25231;SDS011;13176;51.140;6.290;2023-03-01T09:01:07;12.63;;;11.38;;
25231;SDS011;13176;51.140;6.290;2023-03-01T09:03:35;12.27;;;11.18;;
25231;SDS011;13176;51.140;6.290;2023-03-01T09:06:02;11.88;;;10.68;;
25231;SDS011;13176;51.140;6.290;2023-03-01T09:08:30;12.57;;;11.38;;
25231;SDS011;13176;51.140;6.290;2023-03-01T09:11:04;16.40;;;12.15;;
25231;SDS011;13176;51.140;6.290;2023-03-01T09:13:31;13.02;;;11.63;;
25231;SDS011;13176;51.140;6.290;2023-03-01T09:15:59;12.57;;;11.27;;
25231;SDS011;13176;51.140;6.290;2023-03-01T09:18:27;14.75;;;11.50;;
25231;SDS011;13176;51.140;6.290;2023-03-01T09:21:03;15.40;;;10.88;;
25231;SDS011;13176;51.140;6.290;2023-03-01T09:23:35;12.88;;;11.60;;
25231;SDS011;13176;51.140;6.290;2023-03-01T09:26:08;13.50;;;12.15;;
25231;SDS011;13176;51.140;6.290;2023-03-01T09:28:38;13.30;;;12.10;;
25231;SDS011;13176;51.140;6.290;2023-03-01T09:31:10;12.43;;;11.32;;
25231;SDS011;13176;51.140;6.290;2023-03-01T09:33:41;13.40;;;11.77;;
25231;SDS011;13176;51.140;6.290;2023-03-01T09:36:12;13.10;;;11.90;;
25231;SDS011;13176;51.140;6.290;2023-03-01T09:38:41;17.05;;;13.07;;
25231;SDS011;13176;51.140;6.290;2023-03-01T09:41:18;12.85;;;11.60;;
25231;SDS011;13176;51.140;6.290;2023-03-01T09:44:08;19.48;;;14.75;;
25231;SDS011;13176;51.140;6.290;2023-03-01T09:46:43;18.65;;;15.07;;
25231;SDS011;13176;51.140;6.290;2023-03-01T09:49:15;14.10;;;12.65;;
25231;SDS011;13176;51.140;6.290;2023-03-01T09:51:50;13.43;;;12.10;;
25231;SDS011;13176;51.140;6.290;2023-03-01T09:54:22;13.82;;;12.48;;
25231;SDS011;13176;51.140;6.290;2023-03-01T09:57:05;13.25;;;12.00;;
25231;SDS011;13176;51.140;6.290;2023-03-01T09:59:44;14.10;;;12.63;;
25231;SDS011;13176;51.140;6.290;2023-03-01T10:02:43;14.70;;;13.10;;
25231;SDS011;13176;51.140;6.290;2023-03-01T10:05:16;13.57;;;12.25;;
25231;SDS011;13176;51.140;6.290;2023-03-01T10:08:23;15.48;;;13.30;;
25231;SDS011;13176;51.140;6.290;2023-03-01T10:11:03;13.80;;;12.07;;
25231;SDS011;13176;51.140;6.290;2023-03-01T10:13:42;13.82;;;12.30;;
25231;SDS011;13176;51.140;6.290;2023-03-01T10:16:19;13.15;;;11.98;;
25231;SDS011;13176;51.140;6.290;2023-03-01T10:18:53;14.77;;;13.38;;
25231;SDS011;13176;51.140;6.290;2023-03-01T10:21:25;13.30;;;12.05;;
25231;SDS011;13176;51.140;6.290;2023-03-01T10:23:53;13.48;;;12.07;;
25231;SDS011;13176;51.140;6.290;2023-03-01T10:29:11;13.07;;;11.85;;
25231;SDS011;13176;51.140;6.290;2023-03-01T10:31:42;13.55;;;12.15;;
25231;SDS011;13176;51.140;6.290;2023-03-01T10:34:14;16.15;;;11.68;;
25231;SDS011;13176;51.140;6.290;2023-03-01T10:36:44;13.20;;;11.98;;
25231;SDS011;13176;51.140;6.290;2023-03-01T10:39:15;13.82;;;11.13;;
25231;SDS011;13176;51.140;6.290;2023-03-01T10:41:56;12.15;;;10.88;;
25231;SDS011;13176;51.140;6.290;2023-03-01T10:44:35;12.35;;;11.13;;
25231;SDS011;13176;51.140;6.290;2023-03-01T10:47:02;11.57;;;10.15;;
25231;SDS011;13176;51.140;6.290;2023-03-01T10:49:28;10.68;;;9.68;;
25231;SDS011;13176;51.140;6.290;2023-03-01T10:51:55;12.55;;;10.05;;
25231;SDS011;13176;51.140;6.290;2023-03-01T10:54:29;11.65;;;9.82;;
25231;SDS011;13176;51.140;6.290;2023-03-01T10:57:00;10.65;;;9.65;;
25231;SDS011;13176;51.140;6.290;2023-03-01T10:59:32;11.15;;;10.15;;
25231;SDS011;13176;51.140;6.290;2023-03-01T11:05:00;11.40;;;9.85;;
25231;SDS011;13176;51.140;6.290;2023-03-01T11:07:47;11.55;;;10.38;;
25231;SDS011;13176;51.140;6.290;2023-03-01T11:10:17;11.63;;;10.23;;
25231;SDS011;13176;51.140;6.290;2023-03-01T11:12:45;11.00;;;10.10;;
25231;SDS011;13176;51.140;6.290;2023-03-01T11:15:26;11.73;;;10.65;;
25231;SDS011;13176;51.140;6.290;2023-03-01T11:17:54;11.80;;;10.77;;
25231;SDS011;13176;51.140;6.290;2023-03-01T11:20:38;12.10;;;11.00;;
25231;SDS011;13176;51.140;6.290;2023-03-01T11:23:09;11.95;;;10.90;;
25231;SDS011;13176;51.140;6.290;2023-03-01T11:28:29;11.38;;;10.48;;
25231;SDS011;13176;51.140;6.290;2023-03-01T11:39:05;14.27;;;12.07;;
25231;SDS011;13176;51.140;6.290;2023-03-01T11:41:48;11.75;;;10.75;;
25231;SDS011;13176;51.140;6.290;2023-03-01T11:44:23;10.65;;;9.73;;
25231;SDS011;13176;51.140;6.290;2023-03-01T11:49:36;11.48;;;10.38;;
25231;SDS011;13176;51.140;6.290;2023-03-01T11:52:09;12.40;;;11.30;;
25231;SDS011;13176;51.140;6.290;2023-03-01T12:09:35;10.50;;;9.55;;
25231;SDS011;13176;51.140;6.290;2023-03-01T12:20:28;10.85;;;9.85;;
25231;SDS011;13176;51.140;6.290;2023-03-01T12:45:47;10.30;;;9.40;;
25231;SDS011;13176;51.140;6.290;2023-03-01T12:50:53;10.25;;;9.35;;
25231;SDS011;13176;51.140;6.290;2023-03-01T12:53:34;10.75;;;9.75;;
25231;SDS011;13176;51.140;6.290;2023-03-01T12:56:06;10.38;;;9.57;;
25231;SDS011;13176;51.140;6.290;2023-03-01T12:58:39;12.02;;;10.93;;
25231;SDS011;13176;51.140;6.290;2023-03-01T13:01:44;10.70;;;9.82;;
25231;SDS011;13176;51.140;6.290;2023-03-01T13:17:50;10.40;;;9.48;;
25231;SDS011;13176;51.140;6.290;2023-03-01T13:20:20;11.43;;;10.52;;
25231;SDS011;13176;51.140;6.290;2023-03-01T13:22:49;10.88;;;10.00;;
25231;SDS011;13176;51.140;6.290;2023-03-01T13:25:30;11.18;;;10.00;;
25231;SDS011;13176;51.140;6.290;2023-03-01T13:33:48;12.38;;;10.95;;
25231;SDS011;13176;51.140;6.290;2023-03-01T13:49:48;11.90;;;10.65;;
25231;SDS011;13176;51.140;6.290;2023-03-01T13:55:21;12.20;;;10.85;;
25231;SDS011;13176;51.140;6.290;2023-03-01T13:58:01;10.27;;;9.38;;
25231;SDS011;13176;51.140;6.290;2023-03-01T14:00:42;8.95;;;8.20;;
25231;SDS011;13176;51.140;6.290;2023-03-01T14:03:16;9.98;;;7.43;;
25231;SDS011;13176;51.140;6.290;2023-03-01T14:08:47;8.38;;;7.18;;
25231;SDS011;13176;51.140;6.290;2023-03-01T14:14:23;7.30;;;6.63;;
25231;SDS011;13176;51.140;6.290;2023-03-01T14:19:42;8.40;;;7.63;;
25231;SDS011;13176;51.140;6.290;2023-03-01T14:25:00;7.75;;;6.90;;
25231;SDS011;13176;51.140;6.290;2023-03-01T14:27:33;8.75;;;7.10;;
25231;SDS011;13176;51.140;6.290;2023-03-01T14:30:16;7.15;;;6.55;;
25231;SDS011;13176;51.140;6.290;2023-03-01T14:32:55;7.57;;;6.88;;
25231;SDS011;13176;51.140;6.290;2023-03-01T14:35:24;7.53;;;6.93;;
25231;SDS011;13176;51.140;6.290;2023-03-01T14:37:53;8.10;;;7.30;;
25231;SDS011;13176;51.140;6.290;2023-03-01T14:40:35;7.70;;;7.10;;
25231;SDS011;13176;51.140;6.290;2023-03-01T14:43:08;7.07;;;6.38;;
25231;SDS011;13176;51.140;6.290;2023-03-01T14:45:37;7.95;;;7.13;;
25231;SDS011;13176;51.140;6.290;2023-03-01T14:48:04;8.40;;;7.70;;
25231;SDS011;13176;51.140;6.290;2023-03-01T14:50:40;7.93;;;7.25;;
25231;SDS011;13176;51.140;6.290;2023-03-01T14:53:19;8.07;;;7.32;;
25231;SDS011;13176;51.140;6.290;2023-03-01T14:55:49;7.85;;;7.10;;
25231;SDS011;13176;51.140;6.290;2023-03-01T14:58:20;8.07;;;7.30;;
25231;SDS011;13176;51.140;6.290;2023-03-01T15:06:14;11.45;;;7.50;;
25231;SDS011;13176;51.140;6.290;2023-03-01T15:08:47;8.27;;;7.55;;
25231;SDS011;13176;51.140;6.290;2023-03-01T15:11:22;8.07;;;7.28;;
25231;SDS011;13176;51.140;6.290;2023-03-01T15:13:56;8.82;;;7.97;;
25231;SDS011;13176;51.140;6.290;2023-03-01T15:16:24;12.45;;;7.28;;
25231;SDS011;13176;51.140;6.290;2023-03-01T15:18:55;8.50;;;6.95;;
25231;SDS011;13176;51.140;6.290;2023-03-01T15:21:26;7.82;;;7.03;;
25231;SDS011;13176;51.140;6.290;2023-03-01T15:24:06;9.95;;;7.22;;
25231;SDS011;13176;51.140;6.290;2023-03-01T15:26:52;9.65;;;8.13;;
25231;SDS011;13176;51.140;6.290;2023-03-01T15:29:24;8.95;;;7.70;;
25231;SDS011;13176;51.140;6.290;2023-03-01T15:32:00;9.25;;;7.60;;
25231;SDS011;13176;51.140;6.290;2023-03-01T15:34:33;7.50;;;6.70;;
25231;SDS011;13176;51.140;6.290;2023-03-01T15:37:03;8.73;;;8.02;;
25231;SDS011;13176;51.140;6.290;2023-03-01T15:39:33;8.32;;;7.57;;
25231;SDS011;13176;51.140;6.290;2023-03-01T15:42:04;8.32;;;7.60;;
25231;SDS011;13176;51.140;6.290;2023-03-01T15:44:35;8.48;;;7.72;;
25231;SDS011;13176;51.140;6.290;2023-03-01T15:47:28;8.75;;;7.88;;
25231;SDS011;13176;51.140;6.290;2023-03-01T15:49:56;8.65;;;7.85;;
25231;SDS011;13176;51.140;6.290;2023-03-01T15:52:27;8.77;;;7.93;;
25231;SDS011;13176;51.140;6.290;2023-03-01T16:00:49;8.88;;;8.00;;
25231;SDS011;13176;51.140;6.290;2023-03-01T16:03:27;8.43;;;7.60;;
25231;SDS011;13176;51.140;6.290;2023-03-01T16:05:54;12.30;;;8.30;;
25231;SDS011;13176;51.140;6.290;2023-03-01T16:08:20;9.68;;;8.57;;
25231;SDS011;13176;51.140;6.290;2023-03-01T16:10:47;8.60;;;7.72;;
25231;SDS011;13176;51.140;6.290;2023-03-01T16:13:16;8.35;;;7.55;;
25231;SDS011;13176;51.140;6.290;2023-03-01T16:15:43;7.65;;;7.05;;
25231;SDS011;13176;51.140;6.290;2023-03-01T16:18:10;8.73;;;7.47;;
25231;SDS011;13176;51.140;6.290;2023-03-01T16:20:37;9.15;;;8.25;;
25231;SDS011;13176;51.140;6.290;2023-03-01T16:23:05;9.23;;;7.43;;
25231;SDS011;13176;51.140;6.290;2023-03-01T16:25:37;8.68;;;7.97;;
25231;SDS011;13176;51.140;6.290;2023-03-01T16:28:06;9.35;;;8.00;;
25231;SDS011;13176;51.140;6.290;2023-03-01T16:30:37;8.23;;;7.55;;
25231;SDS011;13176;51.140;6.290;2023-03-01T16:33:05;10.70;;;8.20;;
25231;SDS011;13176;51.140;6.290;2023-03-01T16:35:50;9.15;;;8.32;;
25231;SDS011;13176;51.140;6.290;2023-03-01T16:38:17;10.23;;;8.35;;
25231;SDS011;13176;51.140;6.290;2023-03-01T16:40:46;9.13;;;8.05;;
25231;SDS011;13176;51.140;6.290;2023-03-01T16:43:14;9.48;;;8.57;;
25231;SDS011;13176;51.140;6.290;2023-03-01T16:45:41;9.20;;;8.00;;
25231;SDS011;13176;51.140;6.290;2023-03-01T16:48:10;10.40;;;8.98;;
25231;SDS011;13176;51.140;6.290;2023-03-01T16:50:38;8.55;;;7.60;;
25231;SDS011;13176;51.140;6.290;2023-03-01T16:53:05;10.23;;;8.07;;
25231;SDS011;13176;51.140;6.290;2023-03-01T16:55:31;10.68;;;7.85;;
25231;SDS011;13176;51.140;6.290;2023-03-01T16:57:59;12.20;;;8.00;;
25231;SDS011;13176;51.140;6.290;2023-03-01T17:00:27;12.85;;;8.90;;
25231;SDS011;13176;51.140;6.290;2023-03-01T17:02:54;8.35;;;7.53;;